createdAt,value
2023-04-23T00:02:16.833Z,98366.34
2023-04-23T00:04:52.928Z,98360.56
2023-04-23T00:07:21.674Z,98367.13
2023-04-23T00:09:50.215Z,98361.91
2023-04-23T00:12:17.597Z,98369.84
2023-04-23T00:14:44.495Z,98358.75
2023-04-23T00:17:11.549Z,98357.53
2023-04-23T00:19:38.292Z,98352.59
2023-04-23T00:22:06.169Z,98350.56
2023-04-23T00:24:36.132Z,98354.63
2023-04-23T00:27:03.359Z,98357.16
2023-04-23T00:29:30.232Z,98345.38
2023-04-23T00:31:57.595Z,98345.84
2023-04-23T00:34:24.459Z,98344.00
2023-04-23T00:36:51.524Z,98343.63
2023-04-23T00:39:18.273Z,98345.31
2023-04-23T00:41:45.431Z,98341.38
2023-04-23T00:44:13.213Z,98340.44
2023-04-23T00:46:40.413Z,98341.16
2023-04-23T00:49:07.172Z,98344.84
2023-04-23T00:51:34.400Z,98339.69
2023-04-23T00:54:01.145Z,98338.81
2023-04-23T00:56:28.416Z,98338.44
2023-04-23T00:58:55.301Z,98338.88
2023-04-23T01:01:22.422Z,98343.63
2023-04-23T01:03:49.548Z,98343.31
2023-04-23T01:06:16.906Z,98341.94
2023-04-23T01:08:43.776Z,98345.66
2023-04-23T01:11:11.390Z,98343.41
2023-04-23T01:13:38.107Z,98347.75
2023-04-23T01:16:05.454Z,98343.66
2023-04-23T01:18:32.490Z,98344.81
2023-04-23T01:20:59.663Z,98346.19
2023-04-23T01:23:27.258Z,98342.78
2023-04-23T01:25:54.682Z,98350.53
2023-04-23T01:28:21.599Z,98345.56
2023-04-23T01:30:48.661Z,98350.44
2023-04-23T01:33:15.520Z,98344.34
2023-04-23T01:35:42.537Z,98338.38
2023-04-23T01:38:10.550Z,98343.25
2023-04-23T01:40:38.026Z,98336.56
2023-04-23T01:43:06.333Z,98347.16
2023-04-23T01:45:33.430Z,98339.91
2023-04-23T01:48:00.791Z,98332.81
2023-04-23T01:50:29.927Z,98334.69
2023-04-23T01:52:56.805Z,98339.25
2023-04-23T01:55:23.976Z,98336.47
2023-04-23T01:57:51.655Z,98335.97
2023-04-23T02:00:18.967Z,98330.75
2023-04-23T02:02:46.097Z,98340.31
2023-04-23T02:05:18.674Z,98334.34
2023-04-23T02:07:46.465Z,98328.22
2023-04-23T02:10:13.597Z,98327.94
2023-04-23T02:12:40.460Z,98334.63
2023-04-23T02:15:08.035Z,98323.81
2023-04-23T02:17:35.465Z,98327.41
2023-04-23T02:20:02.860Z,98329.38
2023-04-23T02:22:29.844Z,98323.53
2023-04-23T02:24:56.936Z,98325.81
2023-04-23T02:27:23.859Z,98325.28
2023-04-23T02:29:51.851Z,98322.97
2023-04-23T02:32:18.634Z,98319.88
2023-04-23T02:34:46.363Z,98319.03
2023-04-23T02:37:13.103Z,98315.50
2023-04-23T02:39:40.227Z,98323.16
2023-04-23T02:42:07.266Z,98321.31
2023-04-23T02:44:34.385Z,98310.09
2023-04-23T02:47:01.339Z,98320.59
2023-04-23T02:49:28.473Z,98322.31
2023-04-23T02:51:55.314Z,98320.06
2023-04-23T02:54:22.350Z,98321.06
2023-04-23T02:56:49.153Z,98314.38
2023-04-23T02:59:16.267Z,98317.38
2023-04-23T03:01:43.101Z,98316.38
2023-04-23T03:04:10.412Z,98308.84
2023-04-23T03:06:37.451Z,98309.88
2023-04-23T03:09:05.002Z,98301.34
2023-04-23T03:11:31.815Z,98308.75
2023-04-23T03:13:58.878Z,98313.00
2023-04-23T03:16:28.213Z,98313.16
2023-04-23T03:18:55.704Z,98311.44
2023-04-23T03:21:22.648Z,98310.88
2023-04-23T03:23:49.769Z,98306.94
2023-04-23T03:26:16.536Z,98304.66
2023-04-23T03:28:43.592Z,98308.81
2023-04-23T03:31:10.396Z,98308.81
2023-04-23T03:33:37.514Z,98316.50
2023-04-23T03:36:04.661Z,98311.25
2023-04-23T03:38:31.804Z,98311.53
2023-04-23T03:40:58.569Z,98315.22
2023-04-23T03:43:25.725Z,98311.97
2023-04-23T03:45:52.481Z,98315.66
2023-04-23T03:48:20.826Z,98320.66
2023-04-23T03:50:47.667Z,98319.13
2023-04-23T03:53:14.727Z,98312.84
2023-04-23T03:55:41.526Z,98323.25
2023-04-23T03:58:09.709Z,98313.44
2023-04-23T04:00:36.495Z,98316.97
2023-04-23T04:03:04.470Z,98319.56
2023-04-23T04:05:31.575Z,98320.13
2023-04-23T04:07:58.686Z,98320.84
2023-04-23T04:10:25.419Z,98322.13
2023-04-23T04:12:52.514Z,98317.25
2023-04-23T04:15:20.776Z,98324.69
2023-04-23T04:17:47.906Z,98321.00
2023-04-23T04:20:14.721Z,98317.56
2023-04-23T04:22:41.883Z,98314.28
2023-04-23T04:25:08.879Z,98319.97
2023-04-23T04:27:36.021Z,98321.41
2023-04-23T04:30:03.104Z,98316.44
2023-04-23T04:32:30.173Z,98316.72
2023-04-23T04:34:57.209Z,98317.41
2023-04-23T04:37:24.801Z,98310.03
2023-04-23T04:39:51.537Z,98314.72
2023-04-23T04:42:19.178Z,98316.44
2023-04-23T04:44:46.116Z,98313.84
2023-04-23T04:47:13.605Z,98322.53
2023-04-23T04:49:40.454Z,98318.16
2023-04-23T04:52:07.581Z,98318.56
2023-04-23T04:54:34.317Z,98320.81
2023-04-23T04:57:02.410Z,98316.13
2023-04-23T04:59:29.370Z,98318.53
2023-04-23T05:01:56.773Z,98320.66
2023-04-23T05:04:23.718Z,98315.84
2023-04-23T05:06:50.934Z,98319.94
2023-04-23T05:09:17.705Z,98319.78
2023-04-23T05:11:44.796Z,98319.09
2023-04-23T05:14:11.726Z,98315.22
2023-04-23T05:16:38.785Z,98315.34
2023-04-23T05:19:06.451Z,98315.91
2023-04-23T05:21:33.541Z,98310.03
2023-04-23T05:24:00.389Z,98308.31
2023-04-23T05:26:27.536Z,98309.19
2023-04-23T05:28:54.268Z,98306.72
2023-04-23T05:31:21.662Z,98305.41
2023-04-23T05:33:50.570Z,98309.66
2023-04-23T05:36:18.471Z,98314.34
2023-04-23T05:38:45.293Z,98312.88
2023-04-23T05:41:12.356Z,98309.72
2023-04-23T05:43:39.128Z,98309.44
2023-04-23T05:46:07.709Z,98311.44
2023-04-23T05:48:34.815Z,98316.06
2023-04-23T05:51:02.034Z,98304.63
2023-04-23T05:53:28.941Z,98303.00
2023-04-23T05:55:56.106Z,98309.69
2023-04-23T05:58:23.583Z,98305.34
2023-04-23T06:00:50.654Z,98311.16
2023-04-23T06:03:17.643Z,98311.25
2023-04-23T06:05:45.302Z,98312.31
2023-04-23T06:08:12.118Z,98313.88
2023-04-23T06:10:39.179Z,98314.81
2023-04-23T06:13:06.091Z,98314.34
2023-04-23T06:15:33.159Z,98314.88
2023-04-23T06:18:00.057Z,98312.72
2023-04-23T06:20:27.302Z,98320.25
2023-04-23T06:22:54.107Z,98314.53
2023-04-23T06:25:21.236Z,98313.38
2023-04-23T06:27:48.010Z,98320.19
2023-04-23T06:30:15.160Z,98316.72
2023-04-23T06:32:41.922Z,98317.47
2023-04-23T06:35:09.576Z,98318.88
2023-04-23T06:37:36.434Z,98314.50
2023-04-23T06:40:03.779Z,98316.59
2023-04-23T06:42:30.840Z,98310.34
2023-04-23T06:44:59.586Z,98310.25
2023-04-23T06:47:26.466Z,98312.47
2023-04-23T06:49:53.592Z,98305.53
2023-04-23T06:52:20.383Z,98301.00
2023-04-23T06:54:47.523Z,98303.59
2023-04-23T06:57:14.291Z,98301.22
2023-04-23T06:59:41.337Z,98299.22
2023-04-23T07:02:08.166Z,98296.38
2023-04-23T07:04:35.704Z,98292.50
2023-04-23T07:07:02.713Z,98295.63
2023-04-23T07:09:29.956Z,98292.91
2023-04-23T07:11:56.779Z,98294.09
2023-04-23T07:14:24.880Z,98290.53
2023-04-23T07:16:52.198Z,98298.53
2023-04-23T07:19:19.339Z,98293.63
2023-04-23T07:21:47.295Z,98294.66
2023-04-23T07:24:14.441Z,98294.66
2023-04-23T07:26:41.343Z,98286.84
2023-04-23T07:29:10.572Z,98292.13
2023-04-23T07:31:37.628Z,98288.69
2023-04-23T07:34:04.992Z,98288.88
2023-04-23T07:36:32.055Z,98288.69
2023-04-23T07:38:59.201Z,98287.38
2023-04-23T07:41:25.992Z,98289.38
2023-04-23T07:43:53.001Z,98285.16
2023-04-23T07:46:20.243Z,98289.72
2023-04-23T07:48:47.436Z,98290.75
2023-04-23T07:51:14.223Z,98284.56
2023-04-23T07:53:41.494Z,98281.00
2023-04-23T07:56:08.310Z,98285.38
2023-04-23T07:58:35.604Z,98283.84
2023-04-23T08:01:02.646Z,98282.28
2023-04-23T08:03:29.989Z,98283.59
2023-04-23T08:05:57.556Z,98276.59
2023-04-23T08:08:24.677Z,98276.91
2023-04-23T08:10:51.451Z,98282.19
2023-04-23T08:13:19.324Z,98278.19
2023-04-23T08:15:46.099Z,98273.22
2023-04-23T08:18:13.286Z,98277.16
2023-04-23T08:20:40.053Z,98267.19
2023-04-23T08:23:07.207Z,98268.34
2023-04-23T08:25:34.682Z,98263.88
2023-04-23T08:28:02.419Z,98270.31
2023-04-23T08:30:29.250Z,98265.34
2023-04-23T08:32:56.684Z,98263.75
2023-04-23T08:35:23.840Z,98262.31
2023-04-23T08:37:50.906Z,98265.63
2023-04-23T08:40:17.683Z,98252.97
2023-04-23T08:42:52.245Z,98256.16
2023-04-23T08:45:19.083Z,98253.56
2023-04-23T08:47:46.238Z,98260.34
2023-04-23T08:50:18.349Z,98249.00
2023-04-23T08:52:48.146Z,98248.22
2023-04-23T08:55:15.956Z,98242.03
2023-04-23T08:57:43.071Z,98247.78
2023-04-23T09:00:11.032Z,98250.06
2023-04-23T09:02:40.598Z,98244.03
2023-04-23T09:05:08.528Z,98235.44
2023-04-23T09:07:35.954Z,98243.72
2023-04-23T09:10:04.041Z,98236.06
2023-04-23T09:12:31.218Z,98234.72
2023-04-23T09:14:58.413Z,98237.53
2023-04-23T09:17:28.090Z,98234.31
2023-04-23T09:19:55.295Z,98234.78
2023-04-23T09:22:47.441Z,98235.50
2023-04-23T09:25:17.524Z,98231.63
2023-04-23T09:27:45.884Z,98233.56
2023-04-23T09:30:13.046Z,98221.88
2023-04-23T09:32:42.225Z,98233.22
2023-04-23T09:35:10.611Z,98227.16
2023-04-23T09:37:38.857Z,98225.81
2023-04-23T09:40:09.542Z,98227.25
2023-04-23T09:42:37.076Z,98225.53
2023-04-23T09:45:06.265Z,98217.38
2023-04-23T09:47:41.019Z,98219.78
2023-04-23T09:50:10.483Z,98216.72
2023-04-23T09:52:41.207Z,98224.13
2023-04-23T09:55:08.616Z,98219.31
2023-04-23T09:57:42.519Z,98210.28
2023-04-23T10:00:15.291Z,98219.19
2023-04-23T10:02:49.839Z,98207.06
2023-04-23T10:05:24.844Z,98208.13
2023-04-23T10:07:59.743Z,98206.72
2023-04-23T10:10:26.723Z,98198.75
2023-04-23T10:12:55.899Z,98194.13
2023-04-23T10:15:26.910Z,98199.25
2023-04-23T10:17:54.701Z,98197.38
2023-04-23T10:20:24.578Z,98190.00
2023-04-23T10:22:52.594Z,98181.81
2023-04-23T10:25:19.431Z,98183.94
2023-04-23T10:27:53.756Z,98181.84
2023-04-23T10:30:21.034Z,98171.16
2023-04-23T10:32:48.829Z,98173.69
2023-04-23T10:35:15.694Z,98168.44
2023-04-23T10:37:42.859Z,98161.88
2023-04-23T10:40:12.886Z,98161.25
2023-04-23T10:42:40.728Z,98166.53
2023-04-23T10:45:23.164Z,98162.94
2023-04-23T10:47:53.572Z,98157.47
2023-04-23T10:50:30.796Z,98150.09
2023-04-23T10:52:58.715Z,98146.94
2023-04-23T10:55:27.453Z,98150.50
2023-04-23T10:58:05.873Z,98151.97
2023-04-23T11:00:41.955Z,98148.59
2023-04-23T11:03:44.569Z,98144.81
2023-04-23T11:06:15.621Z,98140.19
2023-04-23T11:08:53.825Z,98151.56
2023-04-23T11:11:25.774Z,98139.31
2023-04-23T11:13:55.804Z,98143.47
2023-04-23T11:16:23.600Z,98139.03
2023-04-23T11:19:03.081Z,98136.91
2023-04-23T11:21:54.765Z,98136.69
2023-04-23T11:24:27.200Z,98136.00
2023-04-23T11:26:54.582Z,98136.88
2023-04-23T11:29:23.801Z,98122.91
2023-04-23T11:32:01.528Z,98133.03
2023-04-23T11:34:30.917Z,98132.81
2023-04-23T11:36:59.177Z,98128.13
2023-04-23T11:39:27.031Z,98124.53
2023-04-23T11:41:54.877Z,98118.59
2023-04-23T11:44:22.135Z,98124.28
2023-04-23T11:46:49.861Z,98116.59
2023-04-23T11:49:17.146Z,98118.69
2023-04-23T11:51:44.612Z,98120.78
2023-04-23T11:54:13.665Z,98117.22
2023-04-23T11:56:40.866Z,98114.84
2023-04-23T11:59:08.148Z,98113.34
2023-04-23T12:01:46.816Z,98119.72
2023-04-23T12:04:20.088Z,98114.38
2023-04-23T12:06:47.923Z,98119.66
2023-04-23T12:09:16.038Z,98107.56
2023-04-23T12:11:43.495Z,98109.50
2023-04-23T12:14:11.447Z,98111.13
2023-04-23T12:16:41.466Z,98105.59
2023-04-23T12:19:15.346Z,98102.66
2023-04-23T12:21:49.601Z,98091.81
2023-04-23T12:24:16.743Z,98093.97
2023-04-23T12:26:44.511Z,98100.25
2023-04-23T12:29:13.371Z,98101.72
2023-04-23T12:31:40.365Z,98098.53
2023-04-23T12:34:08.793Z,98096.00
2023-04-23T12:36:36.710Z,98089.19
2023-04-23T12:39:32.097Z,98088.75
2023-04-23T12:42:05.537Z,98092.69
2023-04-23T12:44:35.530Z,98097.28
2023-04-23T12:47:07.684Z,98084.53
2023-04-23T12:49:35.906Z,98087.34
2023-04-23T12:52:03.742Z,98075.03
2023-04-23T12:54:33.126Z,98079.66
2023-04-23T12:57:02.026Z,98073.91
2023-04-23T12:59:29.405Z,98081.28
2023-04-23T13:01:56.256Z,98084.41
2023-04-23T13:04:23.326Z,98085.03
2023-04-23T13:06:50.837Z,98084.81
2023-04-23T13:09:17.978Z,98072.47
2023-04-23T13:11:46.194Z,98067.81
2023-04-23T13:14:13.264Z,98070.13
2023-04-23T13:16:40.113Z,98068.63
2023-04-23T13:19:07.346Z,98068.63
2023-04-23T13:21:34.102Z,98061.84
2023-04-23T13:24:01.186Z,98066.94
2023-04-23T13:26:31.968Z,98068.25
2023-04-23T13:28:59.774Z,98069.56
2023-04-23T13:31:26.917Z,98063.22
2023-04-23T13:33:54.044Z,98063.22
2023-04-23T13:36:20.798Z,98063.66
2023-04-23T13:38:47.984Z,98064.97
2023-04-23T13:41:14.756Z,98062.00
2023-04-23T13:43:41.851Z,98057.53
2023-04-23T13:46:08.787Z,98055.22
2023-04-23T13:48:35.883Z,98059.53
2023-04-23T13:51:02.760Z,98063.34
2023-04-23T13:53:29.853Z,98055.91
2023-04-23T13:55:56.775Z,98045.81
2023-04-23T13:58:24.063Z,98048.19
2023-04-23T14:00:50.963Z,98048.19
2023-04-23T14:03:18.184Z,98046.69
2023-04-23T14:05:45.091Z,98037.38
2023-04-23T14:08:13.088Z,98036.53
2023-04-23T14:10:43.020Z,98033.38
2023-04-23T14:13:10.820Z,98031.94
2023-04-23T14:15:37.710Z,98027.72
2023-04-23T14:18:05.778Z,98037.28
2023-04-23T14:20:32.604Z,98028.38
2023-04-23T14:23:22.935Z,98024.56
2023-04-23T14:25:57.238Z,98024.78
2023-04-23T14:28:27.424Z,98026.72
2023-04-23T14:30:57.504Z,98026.09
2023-04-23T14:33:24.633Z,98023.09
2023-04-23T14:35:51.507Z,98029.25
2023-04-23T14:38:18.708Z,98028.38
2023-04-23T14:40:45.479Z,98022.88
2023-04-23T14:43:15.773Z,98022.47
2023-04-23T14:45:43.099Z,98028.84
2023-04-23T14:48:10.513Z,98022.09
2023-04-23T14:50:37.340Z,98021.25
2023-04-23T14:53:07.151Z,98020.19
2023-04-23T14:55:34.297Z,98013.84
2023-04-23T14:58:01.629Z,98013.63
2023-04-23T15:00:28.491Z,98017.19
2023-04-23T15:02:56.438Z,98011.47
2023-04-23T15:05:23.483Z,98020.81
2023-04-23T15:07:51.884Z,98019.78
2023-04-23T15:10:20.338Z,98010.69
2023-04-23T15:12:53.445Z,98015.97
2023-04-23T15:15:36.820Z,98007.72
2023-04-23T15:18:13.783Z,98004.56
2023-04-23T15:20:40.954Z,98007.34
2023-04-23T15:23:08.142Z,98007.34
2023-04-23T15:25:34.924Z,97995.44
2023-04-23T15:28:02.054Z,98005.41
2023-04-23T15:30:29.050Z,97991.47
2023-04-23T15:32:56.301Z,97985.13
2023-04-23T15:35:24.004Z,97988.09
2023-04-23T15:37:51.300Z,97987.03
2023-04-23T15:40:18.256Z,97987.22
2023-04-23T15:42:45.470Z,97988.53
2023-04-23T15:45:12.336Z,97992.13
2023-04-23T15:47:39.500Z,97991.06
2023-04-23T15:50:06.757Z,97985.16
2023-04-23T15:52:33.835Z,97982.41
2023-04-23T15:55:00.956Z,97980.72
2023-04-23T15:57:28.158Z,97980.31
2023-04-23T15:59:55.774Z,97985.84
2023-04-23T16:02:22.971Z,97978.84
2023-04-23T16:04:52.692Z,97985.44
2023-04-23T16:07:19.846Z,97983.53
2023-04-23T16:09:46.653Z,97979.31
2023-04-23T16:12:13.908Z,97973.41
2023-04-23T16:14:42.638Z,97973.00
2023-04-23T16:17:09.818Z,97968.81
2023-04-23T16:19:36.686Z,97965.41
2023-04-23T16:22:03.874Z,97965.69
2023-04-23T16:24:31.092Z,97966.94
2023-04-23T16:26:58.182Z,97968.22
2023-04-23T16:29:25.059Z,97965.31
2023-04-23T16:31:52.212Z,97966.84
2023-04-23T16:34:19.076Z,97958.56
2023-04-23T16:36:46.819Z,97956.50
2023-04-23T16:39:14.654Z,97965.81
2023-04-23T16:41:41.725Z,97963.28
2023-04-23T16:44:08.584Z,97960.97
2023-04-23T16:46:35.728Z,97954.88
2023-04-23T16:49:02.739Z,97959.13
2023-04-23T16:51:29.969Z,97961.47
2023-04-23T16:53:56.951Z,97956.41
2023-04-23T16:56:24.186Z,97957.25
2023-04-23T16:58:51.042Z,97962.34
2023-04-23T17:01:18.254Z,97958.56
2023-04-23T17:03:45.844Z,97954.16
2023-04-23T17:06:27.088Z,97958.19
2023-04-23T17:08:54.508Z,97952.09
2023-04-23T17:11:23.118Z,97953.34
2023-04-23T17:13:51.044Z,97954.22
2023-04-23T17:16:18.416Z,97956.56
2023-04-23T17:18:45.600Z,97959.97
2023-04-23T17:21:12.830Z,97963.19
2023-04-23T17:23:39.676Z,97954.50
2023-04-23T17:26:07.066Z,97955.59
2023-04-23T17:28:33.837Z,97959.19
2023-04-23T17:31:02.658Z,97957.53
2023-04-23T17:33:29.884Z,97954.81
2023-04-23T17:35:57.200Z,97949.53
2023-04-23T17:38:24.781Z,97954.63
2023-04-23T17:40:52.458Z,97955.28
2023-04-23T17:43:19.366Z,97948.28
2023-04-23T17:45:47.580Z,97950.19
2023-04-23T17:48:14.767Z,97955.88
2023-04-23T17:50:42.218Z,97955.69
2023-04-23T17:53:09.030Z,97953.38
2023-04-23T17:55:36.220Z,97954.66
2023-04-23T17:58:05.780Z,97966.28
2023-04-23T18:00:36.654Z,97962.47
2023-04-23T18:03:04.009Z,97961.44
2023-04-23T18:05:31.424Z,97960.00
2023-04-23T18:07:58.337Z,97972.88
2023-04-23T18:10:25.550Z,97970.75
2023-04-23T18:12:52.510Z,97963.81
2023-04-23T18:15:19.728Z,97969.31
2023-04-23T18:17:47.535Z,97968.91
2023-04-23T18:20:16.203Z,97979.25
2023-04-23T18:22:44.335Z,97978.59
2023-04-23T18:25:12.675Z,97981.16
2023-04-23T18:27:39.635Z,97981.97
2023-04-23T18:30:08.318Z,97995.25
2023-04-23T18:32:40.083Z,97983.22
2023-04-23T18:35:09.102Z,97998.84
2023-04-23T18:37:56.008Z,97986.81
2023-04-23T18:40:23.291Z,97995.66
2023-04-23T18:42:50.423Z,97992.91
2023-04-23T18:45:17.535Z,97986.34
2023-04-23T18:47:50.024Z,97983.81
2023-04-23T18:50:42.162Z,97986.53
2023-04-23T18:53:08.949Z,97982.75
2023-04-23T18:55:36.846Z,97985.91
2023-04-23T18:58:03.671Z,97992.66
2023-04-23T19:00:30.823Z,97993.06
2023-04-23T19:02:57.988Z,97991.75
2023-04-23T19:05:25.280Z,97991.09
2023-04-23T19:07:52.331Z,97992.97
2023-04-23T19:10:19.476Z,97994.41
2023-04-23T19:12:46.352Z,97995.69
2023-04-23T19:15:15.034Z,97991.22
2023-04-23T19:17:41.962Z,97987.59
2023-04-23T19:20:11.226Z,97994.97
2023-04-23T19:22:40.572Z,97992.38
2023-04-23T19:25:09.318Z,97990.47
2023-04-23T19:27:38.908Z,97986.47
2023-04-23T19:30:06.981Z,97994.03
2023-04-23T19:32:33.874Z,97998.44
2023-04-23T19:35:01.120Z,97988.94
2023-04-23T19:37:28.280Z,97988.63
2023-04-23T19:39:55.380Z,97989.41
2023-04-23T19:42:22.218Z,97988.78
2023-04-23T19:44:49.754Z,97988.78
2023-04-23T19:47:17.185Z,97981.13
2023-04-23T19:49:45.009Z,97975.66
2023-04-23T19:52:17.242Z,97980.47
2023-04-23T19:54:49.067Z,97982.09
2023-04-23T19:57:18.406Z,97978.94
2023-04-23T19:59:46.065Z,97976.72
2023-04-23T20:02:12.997Z,97983.84
2023-04-23T20:04:41.365Z,97977.94
2023-04-23T20:07:08.504Z,97971.16
2023-04-23T20:09:35.613Z,97976.38
2023-04-23T20:12:02.870Z,97971.91
2023-04-23T20:14:30.024Z,97976.81
2023-04-23T20:16:57.368Z,97980.94
2023-04-23T20:19:26.187Z,97980.81
2023-04-23T20:21:53.499Z,97970.06
2023-04-23T20:24:21.498Z,97972.72
2023-04-23T20:26:48.620Z,97974.81
2023-04-23T20:29:15.355Z,97976.84
2023-04-23T20:31:42.538Z,97971.38
2023-04-23T20:34:09.522Z,97974.50
2023-04-23T20:36:38.736Z,97965.19
2023-04-23T20:39:05.593Z,97970.00
2023-04-23T20:41:34.531Z,97967.13
2023-04-23T20:44:02.064Z,97966.47
2023-04-23T20:46:32.600Z,97961.47
2023-04-23T20:49:00.894Z,97964.03
2023-04-23T20:51:33.211Z,97963.41
2023-04-23T20:54:00.113Z,97956.56
2023-04-23T20:56:27.961Z,97956.84
2023-04-23T20:58:54.785Z,97961.53
2023-04-23T21:01:21.910Z,97954.13
2023-04-23T21:03:49.392Z,97953.69
2023-04-23T21:06:16.557Z,97950.09
2023-04-23T21:08:43.312Z,97947.91
2023-04-23T21:11:11.345Z,97953.75
2023-04-23T21:13:38.208Z,97942.56
2023-04-23T21:16:05.495Z,97939.94
2023-04-23T21:18:32.363Z,97942.59
2023-04-23T21:20:59.819Z,97932.31
2023-04-23T21:23:26.656Z,97931.38
2023-04-23T21:25:53.704Z,97932.97
2023-04-23T21:28:20.543Z,97935.50
2023-04-23T21:30:54.483Z,97929.50
2023-04-23T21:33:23.566Z,97926.13
2023-04-23T21:35:51.430Z,97914.47
2023-04-23T21:38:18.506Z,97921.31
2023-04-23T21:40:45.839Z,97917.84
2023-04-23T21:43:12.792Z,97914.00
2023-04-23T21:45:39.827Z,97914.00
2023-04-23T21:48:06.657Z,97907.78
2023-04-23T21:50:33.867Z,97905.72
2023-04-23T21:53:03.110Z,97911.56
2023-04-23T21:55:33.611Z,97903.09
2023-04-23T21:58:13.958Z,97893.41
2023-04-23T22:00:44.767Z,97896.69
2023-04-23T22:03:12.626Z,97892.66
2023-04-23T22:05:52.480Z,97900.16
2023-04-23T22:08:19.551Z,97908.50
2023-04-23T22:10:46.717Z,97905.50
2023-04-23T22:13:14.344Z,97895.78
2023-04-23T22:15:41.412Z,97905.03
2023-04-23T22:18:08.708Z,97891.06
2023-04-23T22:20:37.618Z,97892.03
2023-04-23T22:23:04.500Z,97890.78
2023-04-23T22:25:31.513Z,97901.41
2023-04-23T22:27:59.009Z,97891.25
2023-04-23T22:30:26.246Z,97885.63
2023-04-23T22:32:53.084Z,97895.19
2023-04-23T22:35:20.292Z,97887.84
2023-04-23T22:37:47.705Z,97883.16
2023-04-23T22:40:15.814Z,97882.00
2023-04-23T22:42:42.955Z,97886.13
2023-04-23T22:45:11.299Z,97876.44
2023-04-23T22:47:38.761Z,97870.81
2023-04-23T22:50:07.849Z,97869.31
2023-04-23T22:52:38.038Z,97867.97
2023-04-23T22:55:06.382Z,97867.50
2023-04-23T22:57:33.308Z,97866.84
2023-04-23T23:00:00.777Z,97865.53
2023-04-23T23:02:27.879Z,97861.66
2023-04-23T23:04:56.005Z,97857.56
2023-04-23T23:07:23.358Z,97856.38
2023-04-23T23:09:50.770Z,97853.47
2023-04-23T23:12:18.152Z,97847.03
2023-04-23T23:14:45.603Z,97847.19
2023-04-23T23:17:12.664Z,97846.25
2023-04-23T23:19:39.854Z,97838.56
2023-04-23T23:22:09.905Z,97830.56
2023-04-23T23:24:37.669Z,97832.81
2023-04-23T23:27:04.929Z,97835.25
2023-04-23T23:29:32.817Z,97829.59
2023-04-23T23:31:59.956Z,97827.41
2023-04-23T23:34:27.166Z,97833.53
2023-04-23T23:36:54.180Z,97821.47
2023-04-23T23:39:21.727Z,97833.22
2023-04-23T23:41:48.622Z,97820.63
2023-04-23T23:44:16.595Z,97822.50
2023-04-23T23:46:43.542Z,97815.53
2023-04-23T23:49:11.150Z,97816.94
2023-04-23T23:51:38.622Z,97818.47
2023-04-23T23:54:06.281Z,97819.66
2023-04-23T23:56:33.128Z,97812.91
2023-04-23T23:59:00.149Z,97807.47
